WXBOT messages


fromtotime message
K4KHO-9 wxbot 05/05 00:00:46z Reply k4sdm{29
K4KHO-9 wxbot 05/05 00:00:30z Reply k4sdn{28
K4KHO-9 wxbot 05/04 23:58:54z Reply 30096{27
WXBOT K9BDH-2 05/04 23:57:17z Send another ,Chance T-storms 50% Low 50
WXBOT K9BDH-2 05/04 23:57:12z Send another 2 Miles ENE Germantown Hills IL. Hazardous Weather Outlook, Tonight
K9BDH-2 WXBOT 05/04 23:57:06z Reply 61548{26
WXBOT KO6LGI 05/04 23:47:43z Send another rms then Chance Showers 30% Low 60
WXBOT KO6LGI 05/04 23:47:38z Send another Riverlea OH. Hazardous Weather Outlook, Tonight,Slight Chance T-sto
KO6LGI WXBOT 05/04 23:47:30z Reply 43085{4625
WXBOT KO6LGI 05/04 23:46:27z Send another Unable to find location for KO6LGI
KO6LGI WXBOT 05/04 23:46:19z Reply ohio{4624
RGSTRY WXBOT 05/04 23:37:45z Reply ?{598
WXBOT KE8GIM-1 05/04 23:27:16z Send another overcast and breezy
WXBOT KE8GIM-1 05/04 23:27:11z Send another Currently at South Bend International Airport, Temp:72 wind:210@22,
KE8GIM-1 WXBOT 05/04 23:27:04z Reply Now{485
WXBOT N4WDH-7 05/04 23:26:12z Send another 6 Miles WSW Zephyrhills West FL. Tonight,Partly Cloudy Low 63
N4WDH-7 WXBOT 05/04 23:26:05z Reply 33543{1
WXBOT KM4ACK-3 05/04 22:59:06z Send another 5 Miles E Murfreesboro TN. Tonight,Mostly Clear Low 56
KM4ACK-3 WXBOT 05/04 22:58:58z Reply today{m0001
WXBOT W4RSW 05/04 22:52:49z Send another Heiskell TN. Tonight,Mostly Clear Low 53
W4RSW WXBOT 05/04 22:52:42z Reply 377545687
W4RSW WXBOT 05/04 22:52:41z Reply 37754{5687
WXBOT KJ5MJQ-7 05/04 22:40:07z Send another tation is 30%.
WXBOT KJ5MJQ-7 05/04 22:40:02z Send another wind 10 to 15 mph, with gusts as high as 30 mph. Chance of precipi
WXBOT KJ5MJQ-7 05/04 22:39:56z Send another of showers after 4am. Mostly cloudy, with a low around 61. South
WXBOT KJ5MJQ-7 05/04 22:39:52z Send another showers and thunderstorms between 7pm and 4am, then a slight chance
WXBOT KJ5MJQ-7 05/04 22:39:47z Send another 3 Miles E Tulsa OK. Hazardous Weather Outlook, Tonight,A chance of
KJ5MJQ-7 WXBOT 05/04 22:39:40z Reply 74129 FULL{004
RGSTRY WXBOT 05/04 22:37:45z Reply ?{523
N5ZPI WXBOT 05/04 22:33:42z Reply 76014{105
WXBOT WA1GOV-1 05/04 22:30:12z Send another w 50
WXBOT WA1GOV-1 05/04 22:30:08z Send another East Taunton MA. Special Weather Statement, Tonight,Mostly Clear Lo
WA1GOV-1 WXBOT 05/04 22:30:04z Reply WA1GOV-1
WXBOT N5ZPI 05/04 22:27:39z Send another ds Low 71
WXBOT N5ZPI 05/04 22:27:34z Send another 2 Miles NNE Arlington Municipal Airport TX. Tonight,Decreasing Clou
N5ZPI WXBOT 05/04 22:27:27z Reply 76014{2097
WXBOT KF0QIL-9 05/04 22:02:20z Send another ed T-storms 20% High 81
WXBOT KF0QIL-9 05/04 22:02:15z Send another New Bloomfield MO. Hazardous Weather Outlook, This Afternoon,Isolat
KF0QIL-9 WXBOT 05/04 22:02:05z Reply today{17
WXBOT W2DMB-7 05/04 21:54:26z Send another Mastic Beach NY. Tonight,Mostly Clear Low 51
W2DMB-7 WXBOT 05/04 21:54:19z Reply 11951{1
RGSTRY WXBOT 05/04 21:37:45z Reply ?{448
WXBOT VE2ORU-7 05/04 21:31:49z Send another .
WXBOT VE2ORU-7 05/04 21:31:44z Send another GW4954 66,wind:11@4 g6,1004.7mbar,rh:47%,rain:1h:0.00in.,24h:0.10in
VE2ORU-7 WXBOT 05/04 21:31:37z Reply GW4954{1
WXBOT K7TEJ-9 05/04 21:29:42z Send another FW7674 75,wind:169@6 g6,1013.0mbar,rh:37%,rain:none
K7TEJ-9 WXBOT 05/04 21:29:34z Reply CWOP {21
WXBOT KE8VIK 05/04 21:28:02z Send another Niles MI. This Afternoon,Slight Chance T-storms 20% High 77
KE8VIK WXBOT 05/04 21:27:55z Reply Niles, MI {1
WXBOT KC1RAY-1 05/04 21:20:01z Send another Tonight,Mostly Clear and Breezy then Mostly Clear Low 52
WXBOT KC1RAY-1 05/04 21:19:56z Send another Boston, Logan International Airport MA. Special Weather Statement,
KC1RAY-1 WXBOT 05/04 21:19:49z Reply Boston,MA{070
WXBOT KO6LGI 05/04 21:00:07z Send another Forecast available only at United States locations
WXBOT KO6LGI 05/04 21:00:02z Send another what= full,metar,cwop,current or whois
WXBOT KO6LGI 05/04 20:59:57z Send another when= tonight,tomorrow, or day of week i.e. Sunday
WXBOT KO6LGI 05/04 20:59:52z Send another where= City,ST callsign,APRS obj,lat/lon,grid,CWOP,airport or zip
WXBOT KO6LGI 05/04 20:59:47z Send another Send an APRS message to WXBOT with 'where' 'when' 'what'
KO6LGI WXBOT 05/04 20:59:42z Reply ?{4621
WXBOT W4PWT-7 05/04 20:41:50z Send another 4 Miles SE Deep Run NC. Tonight,Mostly Clear Low 54
W4PWT-7 WXBOT 05/04 20:41:42z Reply Tonight{1
RGSTRY WXBOT 05/04 20:37:45z Reply ?{373
WXBOT K4WPA-4 05/04 20:32:23z Send another :200@14,fair
WXBOT K4WPA-4 05/04 20:32:18z Send another Currently at New Bern, Craven County Regional Airport, Temp:74 wind
K4WPA-4 WXBOT 05/04 20:32:10z Reply Today{2198B
K4WPA-4 WXBOT 05/04 20:32:10z Reply Now{BAEC6
WXBOT KO6LGI 05/04 20:15:46z Send another 3
WXBOT KO6LGI 05/04 20:15:42z Send another 3 Miles NW Rancho Cordova CA. This Afternoon,Chance Rain 40% High 6
KO6LGI WXBOT 05/04 20:15:35z Reply 95608{4619
WXBOT K7TEJ-9 05/04 20:10:20z Send another FW7674 74,wind:238@6 g8,1013.5mbar,rh:37%,rain:none
K7TEJ-9 WXBOT 05/04 20:10:12z Reply CWOP {20
WXBOT KE8GIM-7 05/04 20:03:56z Send another partly cloudy
WXBOT KE8GIM-7 05/04 20:03:51z Send another Currently at South Bend International Airport, Temp:78 wind:250@16,
KE8GIM-7 WXBOT 05/04 20:03:43z Reply Now{61
RGSTRY WXBOT 05/04 19:37:45z Reply ?{298
WXBOT WC5T-2 05/04 19:32:40z Send another High 81
WXBOT WC5T-2 05/04 19:32:35z Send another 3 Miles ESE Bono AR. Wind Advisory, This Afternoon,Sunny and Breezy
WC5T-2 WXBOT 05/04 19:32:27z Reply Today{1
WXBOT K7TEJ-9 05/04 19:26:35z Send another FW7674 74,wind:201@8 g13,1013.2mbar,rh:39%,rain:none
WXBOT K4WPA-4 05/04 19:23:56z Send another 3 Miles SE Pollocksville NC. Tonight,Mostly Clear Low 55
K4WPA-4 WXBOT 05/04 19:23:48z Reply Today{A3CFA
WXBOT K7TEJ-9 05/04 19:22:24z Send another FW7674 74,wind:260@4 g6,1013.3mbar,rh:40%,rain:none
K7TEJ-9 WXBOT 05/04 19:22:17z Reply CWOP {19
WXBOT WP4TNV-10 05/04 19:19:24z Send another 2 Miles NE Caguas PR. This Afternoon,Isolated Showers 20% High 90
WXBOT WP4TNV-10 05/04 19:19:16z Send another d Showers 10% High 88
WXBOT WP4TNV-10 05/04 19:19:11z Send another Luis Muñoz Marín International Airport PR. This Afternoon,Isolate
WP4TNV-10 WXBOT 05/04 19:19:03z Reply 00987 today{13
WP4TNV-10 WXBOT 05/04 19:19:03z Reply 00987 today{12
WXBOT KK4DUK 05/04 19:13:32z Send another Fort Liberty NC. Tonight,Mostly Clear Low 55
KK4DUK WXBOT 05/04 19:13:26z Reply 28307{C0001
WXBOT KE8GIM-1 05/04 18:39:07z Send another fair
WXBOT KE8GIM-1 05/04 18:39:02z Send another Currently at South Bend International Airport, Temp:75 wind:220@18,
WXBOT K7TEJ-9 05/04 18:38:55z Send another FW7674 72,wind:294@8 g15,1013.8mbar,rh:43%,rain:none
KE8GIM-1 WXBOT 05/04 18:38:48z Reply Now{483
K7TEJ-9 WXBOT 05/04 18:38:47z Reply CWOP {18
RGSTRY WXBOT 05/04 18:37:45z Reply ?{223
KO6LGI WXBOT 05/04 18:32:25z Reply 95608{1170
KO6LGI WXBOT 05/04 18:30:57z Reply 95608{1169
WXBOT M7STU-7 05/04 18:26:17z Send another Sorry, unable to get a forecast for location 51.63833/-1.2145
WXBOT M7STU-7 05/04 18:17:52z Send another Sorry, unable to get a forecast for location 51.63833/-1.21467
M7STU-7 WXBOT 05/04 18:17:44z Reply TOMORROW{3